Time;durP1;ratioP1;P1;durP2;ratioP2;P2;SDS_P1;SDS_P2;PMS_P1;PMS_P2;Temp;Humidity;BMP_temperature;BMP_pressure;BME280_temperature;BME280_humidity;BME280_pressure;Samples;Min_cycle;Max_cycle;Signal;HPM_P1;HPM_P2
2023/06/06 00:02:59;;;;;;;12.05;8.90;;;;;;;;;;10093313;28;20386;-66
2023/06/06 00:07:56;;;;;;;9.70;8.68;;;;;;;;;;10110304;28;20050;-66
2023/06/06 00:12:52;;;;;;;9.85;8.85;;;;;;;;;;10110766;28;20501;-66
2023/06/06 00:17:53;;;;;;;13.50;8.73;;;;;;;;;;10105034;28;20046;-66
2023/06/06 00:22:53;;;;;;;10.20;8.20;;;;;;;;;;10108515;28;20053;-66
2023/06/06 00:27:49;;;;;;;9.38;8.38;;;;;;;;;;10116423;28;20049;-68
2023/06/06 00:32:45;;;;;;;10.02;8.90;;;;;;;;;;10115536;28;20288;-68
2023/06/06 00:37:42;;;;;;;9.35;8.45;;;;;;;;;;10124363;28;20046;-67
2023/06/06 00:42:38;;;;;;;12.32;8.75;;;;;;;;;;10120415;28;20492;-67
2023/06/06 00:47:35;;;;;;;10.23;9.20;;;;;;;;;;10115931;28;20682;-68
2023/06/06 00:52:31;;;;;;;9.95;9.00;;;;;;;;;;10115932;28;20509;-67
2023/06/06 00:57:28;;;;;;;11.57;10.10;;;;;;;;;;10108511;28;20061;-66
2023/06/06 01:02:24;;;;;;;11.18;10.15;;;;;;;;;;10105377;28;20046;-66
2023/06/06 01:07:21;;;;;;;10.65;9.40;;;;;;;;;;10106477;28;20039;-66
2023/06/06 01:12:47;;;;;;;11.32;9.30;;;;;;;;;;10097299;28;20509;-69
2023/06/06 01:17:46;;;;;;;10.98;9.88;;;;;;;;;;10119379;28;20053;-68
2023/06/06 01:22:43;;;;;;;11.70;9.38;;;;;;;;;;10104184;28;20504;-67
2023/06/06 01:27:40;;;;;;;10.45;9.43;;;;;;;;;;10105530;28;20054;-70
2023/06/06 01:32:42;;;;;;;9.82;8.93;;;;;;;;;;10106926;28;20521;-70
2023/06/06 01:37:40;;;;;;;10.65;9.60;;;;;;;;;;10103430;28;20097;-68
2023/06/06 01:42:38;;;;;;;11.18;10.15;;;;;;;;;;10110939;28;20065;-67
2023/06/06 01:47:36;;;;;;;11.15;9.48;;;;;;;;;;10114156;28;20046;-68
2023/06/06 01:52:36;;;;;;;10.73;9.45;;;;;;;;;;10095802;28;20074;-68
2023/06/06 01:57:33;;;;;;;10.82;9.80;;;;;;;;;;10110014;28;20078;-67
2023/06/06 02:02:29;;;;;;;11.98;10.77;;;;;;;;;;10100926;28;20625;-66
2023/06/06 02:07:26;;;;;;;11.25;9.85;;;;;;;;;;10109601;28;20038;-65
2023/06/06 02:12:22;;;;;;;11.55;9.18;;;;;;;;;;10080173;28;20453;-66
2023/06/06 02:17:19;;;;;;;10.35;9.10;;;;;;;;;;10105709;28;20535;-67
2023/06/06 02:22:16;;;;;;;10.02;9.02;;;;;;;;;;10099071;28;20039;-68
2023/06/06 02:27:14;;;;;;;11.23;10.10;;;;;;;;;;10111946;28;20039;-69
2023/06/06 02:32:14;;;;;;;13.20;10.30;;;;;;;;;;10113137;28;20055;-67
2023/06/06 02:37:10;;;;;;;11.23;8.95;;;;;;;;;;10107780;28;20115;-68
2023/06/06 02:42:07;;;;;;;10.73;9.63;;;;;;;;;;10112837;28;20409;-67
2023/06/06 02:47:04;;;;;;;12.43;11.23;;;;;;;;;;10113001;28;20508;-68
2023/06/06 02:52:00;;;;;;;11.88;10.13;;;;;;;;;;10097614;28;20686;-68
2023/06/06 02:56:57;;;;;;;11.23;9.05;;;;;;;;;;10106566;28;20070;-69
2023/06/06 03:01:53;;;;;;;10.68;9.63;;;;;;;;;;10099298;28;20051;-67
2023/06/06 03:06:50;;;;;;;11.50;10.00;;;;;;;;;;10098093;28;20524;-67
2023/06/06 03:11:49;;;;;;;14.88;11.60;;;;;;;;;;10109691;28;20038;-68
2023/06/06 03:16:51;;;;;;;12.23;10.32;;;;;;;;;;10106334;28;20492;-68
2023/06/06 03:21:47;;;;;;;12.30;9.70;;;;;;;;;;10099331;28;20424;-68
2023/06/06 03:26:47;;;;;;;12.43;11.13;;;;;;;;;;10095914;28;20106;-67
2023/06/06 03:31:44;;;;;;;13.15;9.50;;;;;;;;;;10122227;28;20428;-67
2023/06/06 03:36:40;;;;;;;11.55;10.38;;;;;;;;;;10114799;28;20042;-73
2023/06/06 03:41:37;;;;;;;19.13;11.50;;;;;;;;;;10119920;28;20043;-73
2023/06/06 03:46:34;;;;;;;12.23;10.52;;;;;;;;;;10106590;28;20083;-72
2023/06/06 03:51:35;;;;;;;12.43;10.95;;;;;;;;;;10127998;28;20390;-72
2023/06/06 03:56:32;;;;;;;12.05;10.85;;;;;;;;;;10114030;28;20089;-72
2023/06/06 04:01:31;;;;;;;12.15;11.05;;;;;;;;;;10107257;28;20093;-72
2023/06/06 04:06:27;;;;;;;12.60;11.40;;;;;;;;;;10123271;28;20075;-72
2023/06/06 04:11:24;;;;;;;12.98;11.63;;;;;;;;;;10110421;28;20047;-72
2023/06/06 04:16:20;;;;;;;12.07;10.98;;;;;;;;;;10111030;28;20061;-72
2023/06/06 04:21:17;;;;;;;11.82;10.63;;;;;;;;;;10120337;28;20058;-72
2023/06/06 04:26:23;;;;;;;14.20;10.98;;;;;;;;;;10118604;28;20047;-72
2023/06/06 04:31:21;;;;;;;13.60;10.77;;;;;;;;;;10089639;28;21346;-72
2023/06/06 04:36:21;;;;;;;11.68;10.45;;;;;;;;;;10103677;28;20513;-71
2023/06/06 04:41:20;;;;;;;11.45;10.25;;;;;;;;;;10116126;28;20078;-72
2023/06/06 04:46:37;;;;;;;12.80;11.45;;;;;;;;;;10088512;28;20113;-72
2023/06/06 04:51:36;;;;;;;11.95;10.73;;;;;;;;;;10098588;28;20813;-72
2023/06/06 04:56:34;;;;;;;15.10;11.52;;;;;;;;;;10123402;28;20452;-72
2023/06/06 05:01:30;;;;;;;12.38;10.57;;;;;;;;;;10116949;28;20046;-71
2023/06/06 05:06:27;;;;;;;11.88;10.55;;;;;;;;;;10117201;28;20109;-72
2023/06/06 05:11:23;;;;;;;12.85;10.75;;;;;;;;;;10115772;28;20070;-72
2023/06/06 05:16:21;;;;;;;11.63;10.30;;;;;;;;;;10106152;28;20047;-73
2023/06/06 05:21:20;;;;;;;12.18;10.02;;;;;;;;;;10117125;28;20043;-72
2023/06/06 05:26:17;;;;;;;11.55;10.40;;;;;;;;;;10107651;28;20042;-72
2023/06/06 05:31:16;;;;;;;11.73;10.52;;;;;;;;;;10090967;28;20094;-73
2023/06/06 05:36:13;;;;;;;12.15;9.77;;;;;;;;;;10114083;28;20061;-73
2023/06/06 05:41:09;;;;;;;10.35;9.25;;;;;;;;;;10114683;28;20046;-76
2023/06/06 05:46:06;;;;;;;11.10;8.80;;;;;;;;;;10106716;28;20086;-76
2023/06/06 05:51:03;;;;;;;10.43;9.32;;;;;;;;;;10109146;28;20484;-75
2023/06/06 05:55:59;;;;;;;9.93;8.88;;;;;;;;;;10114281;28;20484;-76
2023/06/06 06:00:57;;;;;;;8.80;7.85;;;;;;;;;;10112758;28;20550;-75
2023/06/06 06:06:04;;;;;;;9.38;7.90;;;;;;;;;;10112063;28;20505;-76
2023/06/06 06:11:03;;;;;;;10.90;8.20;;;;;;;;;;10120380;28;20666;-75
2023/06/06 06:16:00;;;;;;;9.43;8.52;;;;;;;;;;10101060;28;20062;-76
2023/06/06 06:20:56;;;;;;;10.73;8.23;;;;;;;;;;10110236;28;20053;-76
2023/06/06 06:25:53;;;;;;;8.40;7.45;;;;;;;;;;10123639;28;20305;-76
2023/06/06 06:30:49;;;;;;;9.60;7.30;;;;;;;;;;10120994;28;20078;-75
2023/06/06 06:35:46;;;;;;;8.60;7.70;;;;;;;;;;10115279;28;20054;-77
2023/06/06 06:40:42;;;;;;;11.27;7.95;;;;;;;;;;10122500;28;20468;-76
2023/06/06 06:45:39;;;;;;;8.60;6.90;;;;;;;;;;10112368;28;20055;-76
2023/06/06 06:50:35;;;;;;;12.55;6.65;;;;;;;;;;10118458;28;20051;-76
2023/06/06 06:55:34;;;;;;;8.55;6.60;;;;;;;;;;10103428;28;20057;-76
2023/06/06 07:00:31;;;;;;;8.80;6.57;;;;;;;;;;10122092;28;20552;-76
2023/06/06 07:05:27;;;;;;;7.45;6.70;;;;;;;;;;10119778;28;20043;-76
2023/06/06 07:10:24;;;;;;;6.60;6.00;;;;;;;;;;10119895;28;20062;-76
2023/06/06 07:15:21;;;;;;;7.82;6.50;;;;;;;;;;10119020;28;20054;-75
2023/06/06 07:20:19;;;;;;;6.95;6.35;;;;;;;;;;10126558;28;20050;-75
2023/06/06 07:25:16;;;;;;;8.48;6.10;;;;;;;;;;10123909;28;20093;-75
2023/06/06 07:30:13;;;;;;;10.65;5.70;;;;;;;;;;10128823;28;20444;-75
2023/06/06 07:35:10;;;;;;;8.35;6.32;;;;;;;;;;10128911;28;20075;-75
2023/06/06 07:40:08;;;;;;;7.38;5.95;;;;;;;;;;10121854;28;20046;-75
2023/06/06 07:45:05;;;;;;;6.60;6.00;;;;;;;;;;10130718;28;20381;-74
2023/06/06 07:50:02;;;;;;;9.00;6.05;;;;;;;;;;10126217;28;20046;-75
2023/06/06 07:54:59;;;;;;;10.50;6.35;;;;;;;;;;10127186;28;20046;-75
2023/06/06 07:59:55;;;;;;;10.02;6.13;;;;;;;;;;10129303;28;20077;-75
2023/06/06 08:04:52;;;;;;;6.72;5.35;;;;;;;;;;10127691;28;20047;-75
2023/06/06 08:09:49;;;;;;;5.78;5.22;;;;;;;;;;10113568;28;20047;-75
2023/06/06 08:14:45;;;;;;;6.57;5.60;;;;;;;;;;10124251;28;20409;-75
2023/06/06 08:19:41;;;;;;;7.53;6.18;;;;;;;;;;10126711;28;20047;-75
2023/06/06 08:24:39;;;;;;;7.15;6.18;;;;;;;;;;10096176;28;20050;-75
2023/06/06 08:29:36;;;;;;;8.15;5.68;;;;;;;;;;10119516;28;20073;-75
2023/06/06 08:34:32;;;;;;;7.63;5.35;;;;;;;;;;10116104;28;20046;-75
2023/06/06 08:39:28;;;;;;;8.60;5.47;;;;;;;;;;10109239;28;20042;-75
2023/06/06 08:44:25;;;;;;;7.60;5.05;;;;;;;;;;10114954;28;20039;-75
2023/06/06 08:49:25;;;;;;;5.57;4.95;;;;;;;;;;10102586;28;20063;-75
2023/06/06 08:54:21;;;;;;;5.90;5.25;;;;;;;;;;10115600;28;20539;-75
2023/06/06 08:59:17;;;;;;;6.47;5.10;;;;;;;;;;10109689;28;20047;-75
2023/06/06 09:04:15;;;;;;;5.63;4.80;;;;;;;;;;10119984;28;20468;-75
2023/06/06 09:09:12;;;;;;;6.03;5.07;;;;;;;;;;10114773;28;20042;-74
2023/06/06 09:14:09;;;;;;;5.97;5.03;;;;;;;;;;10124986;28;20388;-75
2023/06/06 09:19:07;;;;;;;6.00;5.40;;;;;;;;;;10125670;28;20098;-75
2023/06/06 09:24:03;;;;;;;5.05;4.55;;;;;;;;;;10117294;28;20098;-75
2023/06/06 09:29:11;;;;;;;5.47;4.95;;;;;;;;;;10113565;28;20054;-75
2023/06/06 09:34:08;;;;;;;7.32;5.13;;;;;;;;;;10119156;28;20050;-75
2023/06/06 09:39:09;;;;;;;9.48;5.55;;;;;;;;;;10128737;28;20463;-75
2023/06/06 09:44:05;;;;;;;7.22;5.10;;;;;;;;;;10129839;28;20500;-75
2023/06/06 09:49:02;;;;;;;7.05;5.40;;;;;;;;;;10121391;28;20042;-75
2023/06/06 09:54:00;;;;;;;7.15;5.40;;;;;;;;;;10109043;28;20532;-75
2023/06/06 09:58:57;;;;;;;5.57;5.00;;;;;;;;;;10108366;28;20063;-75
2023/06/06 10:03:56;;;;;;;6.63;5.20;;;;;;;;;;10119219;28;20041;-75
2023/06/06 10:08:54;;;;;;;6.25;5.38;;;;;;;;;;10128830;28;20038;-75
2023/06/06 10:13:50;;;;;;;5.80;5.05;;;;;;;;;;10117360;28;20058;-76
2023/06/06 10:18:48;;;;;;;8.93;5.28;;;;;;;;;;10118590;28;20456;-75
2023/06/06 10:23:45;;;;;;;6.47;5.18;;;;;;;;;;10109961;28;20078;-74
2023/06/06 10:28:44;;;;;;;7.35;5.93;;;;;;;;;;10104186;28;20102;-75
2023/06/06 10:33:44;;;;;;;6.15;5.50;;;;;;;;;;10104372;28;20457;-75
2023/06/06 10:39:01;;;;;;;10.90;5.22;;;;;;;;;;10118661;28;20043;-75
2023/06/06 10:43:57;;;;;;;7.40;6.18;;;;;;;;;;10094252;28;20038;-75
2023/06/06 10:48:56;;;;;;;6.63;5.90;;;;;;;;;;10047680;28;20114;-75
2023/06/06 10:54:11;;;;;;;6.45;5.78;;;;;;;;;;10076222;28;20126;-74
2023/06/06 10:59:11;;;;;;;6.43;5.78;;;;;;;;;;10073269;28;20055;-74
2023/06/06 11:04:17;;;;;;;8.70;6.20;;;;;;;;;;10067280;28;20044;-74
2023/06/06 11:09:20;;;;;;;9.63;5.95;;;;;;;;;;10068887;28;20127;-74
2023/06/06 11:14:19;;;;;;;6.85;6.20;;;;;;;;;;10073573;28;20090;-74
2023/06/06 11:19:19;;;;;;;8.68;6.22;;;;;;;;;;10068127;28;20075;-74
2023/06/06 11:24:18;;;;;;;9.60;7.30;;;;;;;;;;10072669;28;20049;-74
2023/06/06 11:29:15;;;;;;;6.30;5.70;;;;;;;;;;10063941;28;20036;-74
2023/06/06 11:34:13;;;;;;;7.50;6.22;;;;;;;;;;10078845;28;20133;-74
2023/06/06 11:39:11;;;;;;;8.15;6.05;;;;;;;;;;10063504;28;20050;-74
2023/06/06 11:44:07;;;;;;;6.93;5.50;;;;;;;;;;10076690;28;20566;-74
2023/06/06 11:49:04;;;;;;;8.93;6.00;;;;;;;;;;10077535;28;20093;-74
2023/06/06 11:54:13;;;;;;;6.13;5.53;;;;;;;;;;10077413;28;20832;-73
2023/06/06 11:59:12;;;;;;;6.40;5.63;;;;;;;;;;10084777;28;20039;-74
2023/06/06 12:04:09;;;;;;;7.03;5.75;;;;;;;;;;10087214;28;20113;-74
2023/06/06 12:09:10;;;;;;;6.80;6.15;;;;;;;;;;10075294;28;20039;-74
2023/06/06 12:14:11;;;;;;;6.70;6.10;;;;;;;;;;10076398;28;20046;-74
2023/06/06 12:19:16;;;;;;;9.83;6.20;;;;;;;;;;10062568;28;20055;-74
2023/06/06 12:24:20;;;;;;;9.40;5.90;;;;;;;;;;10069184;28;20051;-74
2023/06/06 12:29:18;;;;;;;7.80;5.57;;;;;;;;;;10063425;28;20050;-74
2023/06/06 12:34:14;;;;;;;6.75;5.65;;;;;;;;;;10072462;28;20054;-73
2023/06/06 12:39:13;;;;;;;7.78;5.60;;;;;;;;;;10080733;28;20047;-73
2023/06/06 12:44:11;;;;;;;9.38;6.03;;;;;;;;;;10048398;28;20153;-73
2023/06/06 12:49:08;;;;;;;6.72;5.47;;;;;;;;;;10057018;28;20122;-74
2023/06/06 12:54:04;;;;;;;6.57;5.70;;;;;;;;;;10069997;28;20461;-73
2023/06/06 12:59:00;;;;;;;5.40;4.90;;;;;;;;;;10069200;28;20040;-74
2023/06/06 13:03:57;;;;;;;9.75;5.90;;;;;;;;;;10065958;28;20051;-74
2023/06/06 13:08:54;;;;;;;7.63;5.68;;;;;;;;;;10058504;28;20122;-73
2023/06/06 13:13:50;;;;;;;7.97;6.10;;;;;;;;;;10062312;28;20501;-74
2023/06/06 13:18:47;;;;;;;7.55;5.72;;;;;;;;;;10066423;28;20048;-74
2023/06/06 13:23:43;;;;;;;7.40;5.40;;;;;;;;;;10062728;28;20394;-74
2023/06/06 13:28:40;;;;;;;7.05;5.45;;;;;;;;;;10071345;28;20080;-74
2023/06/06 13:33:36;;;;;;;7.00;6.05;;;;;;;;;;10068896;28;20556;-73
2023/06/06 13:38:33;;;;;;;7.88;5.65;;;;;;;;;;10068259;28;20047;-73
2023/06/06 13:43:29;;;;;;;8.60;5.97;;;;;;;;;;10071733;28;20068;-73
2023/06/06 13:48:26;;;;;;;6.45;5.78;;;;;;;;;;10066825;28;20050;-73
2023/06/06 13:53:23;;;;;;;8.32;5.78;;;;;;;;;;10058407;28;20098;-74
2023/06/06 13:58:23;;;;;;;8.32;6.53;;;;;;;;;;10062003;28;20078;-73
2023/06/06 14:03:20;;;;;;;9.15;5.90;;;;;;;;;;10067631;28;20395;-73
2023/06/06 14:08:16;;;;;;;9.13;5.70;;;;;;;;;;10064246;28;20809;-74
2023/06/06 14:13:13;;;;;;;7.93;6.50;;;;;;;;;;10068887;28;20059;-74
2023/06/06 14:18:09;;;;;;;8.20;6.28;;;;;;;;;;10066449;28;20576;-74
2023/06/06 14:23:06;;;;;;;8.02;6.10;;;;;;;;;;10067563;28;20105;-73
2023/06/06 14:28:02;;;;;;;8.07;5.82;;;;;;;;;;10075733;28;20054;-74
2023/06/06 14:33:01;;;;;;;7.43;6.43;;;;;;;;;;10069844;28;20449;-74
2023/06/06 14:37:57;;;;;;;9.02;6.22;;;;;;;;;;10063028;28;20051;-74
2023/06/06 14:42:54;;;;;;;7.20;5.45;;;;;;;;;;10062088;28;20738;-73
2023/06/06 14:47:51;;;;;;;7.10;6.45;;;;;;;;;;10066476;28;20118;-73
2023/06/06 14:52:50;;;;;;;7.18;6.18;;;;;;;;;;10080495;28;20066;-73
2023/06/06 14:57:46;;;;;;;6.82;6.18;;;;;;;;;;10074660;28;20055;-73
2023/06/06 15:02:42;;;;;;;6.57;5.70;;;;;;;;;;10072258;28;20043;-74
2023/06/06 15:07:39;;;;;;;7.63;6.82;;;;;;;;;;10073847;28;20048;-73
2023/06/06 15:12:36;;;;;;;7.20;6.50;;;;;;;;;;10067814;28;20055;-73
2023/06/06 15:17:32;;;;;;;6.25;5.65;;;;;;;;;;10064727;28;20105;-73
2023/06/06 15:22:28;;;;;;;6.47;5.75;;;;;;;;;;10073925;28;20106;-73
2023/06/06 15:27:25;;;;;;;11.93;6.28;;;;;;;;;;10082692;28;20210;-74
2023/06/06 15:32:21;;;;;;;7.20;6.40;;;;;;;;;;10071124;28;20039;-74
2023/06/06 15:37:17;;;;;;;6.72;5.68;;;;;;;;;;10072101;28;20051;-73
2023/06/06 15:42:14;;;;;;;7.25;6.60;;;;;;;;;;10072483;28;20047;-74
2023/06/06 15:47:10;;;;;;;7.40;6.70;;;;;;;;;;10057709;28;20110;-73
2023/06/06 15:52:07;;;;;;;7.15;6.45;;;;;;;;;;10068025;28;20047;-74
2023/06/06 15:57:03;;;;;;;8.73;7.82;;;;;;;;;;10074914;28;20062;-73
2023/06/06 16:02:00;;;;;;;7.30;6.38;;;;;;;;;;10069539;28;20043;-74
2023/06/06 16:06:56;;;;;;;7.70;6.15;;;;;;;;;;10069191;28;20509;-73
2023/06/06 16:11:53;;;;;;;7.57;6.75;;;;;;;;;;10067833;28;20086;-75
2023/06/06 16:16:49;;;;;;;8.82;7.57;;;;;;;;;;10076550;28;20090;-72
2023/06/06 16:21:46;;;;;;;7.70;6.80;;;;;;;;;;10086046;28;20067;-74
2023/06/06 16:26:42;;;;;;;7.82;6.85;;;;;;;;;;10081714;28;20191;-73
2023/06/06 16:31:39;;;;;;;7.22;6.60;;;;;;;;;;10078670;28;20078;-73
2023/06/06 16:36:36;;;;;;;7.60;6.45;;;;;;;;;;10068481;28;22084;-75
2023/06/06 16:41:33;;;;;;;9.48;6.93;;;;;;;;;;10061280;28;20052;-74
2023/06/06 16:46:30;;;;;;;9.82;7.00;;;;;;;;;;10047255;28;20047;-73
2023/06/06 16:51:26;;;;;;;9.68;6.55;;;;;;;;;;10047096;28;20079;-73
2023/06/06 16:56:23;;;;;;;7.65;5.95;;;;;;;;;;10047126;28;20047;-73
2023/06/06 17:01:19;;;;;;;11.80;6.82;;;;;;;;;;10052523;28;20059;-73
2023/06/06 17:06:16;;;;;;;12.40;6.32;;;;;;;;;;10047089;28;20052;-73
2023/06/06 17:11:13;;;;;;;8.25;6.72;;;;;;;;;;10049694;28;20130;-73
2023/06/06 17:16:10;;;;;;;8.05;6.32;;;;;;;;;;10066959;28;20054;-73
2023/06/06 17:21:07;;;;;;;10.07;6.85;;;;;;;;;;10073522;28;20051;-73
2023/06/06 17:26:04;;;;;;;12.80;5.80;;;;;;;;;;10068850;28;20050;-73
2023/06/06 17:31:01;;;;;;;8.98;5.60;;;;;;;;;;10078146;28;20567;-73
2023/06/06 17:35:57;;;;;;;8.10;5.80;;;;;;;;;;10068872;28;20063;-73
2023/06/06 17:40:54;;;;;;;9.30;5.85;;;;;;;;;;10073617;28;20459;-74
2023/06/06 17:45:50;;;;;;;7.00;6.03;;;;;;;;;;10065973;28;20051;-74
2023/06/06 17:50:46;;;;;;;11.48;6.55;;;;;;;;;;10073889;28;20108;-74
2023/06/06 17:55:43;;;;;;;9.45;6.63;;;;;;;;;;10038702;28;20097;-72
2023/06/06 18:00:39;;;;;;;10.98;6.28;;;;;;;;;;10075029;28;20054;-73
2023/06/06 18:05:36;;;;;;;9.88;5.57;;;;;;;;;;10066092;28;20047;-73
2023/06/06 18:10:35;;;;;;;6.43;5.22;;;;;;;;;;10064926;28;20477;-72
2023/06/06 18:15:31;;;;;;;11.25;6.47;;;;;;;;;;10060536;28;20497;-73
2023/06/06 18:20:28;;;;;;;8.82;5.70;;;;;;;;;;10062255;28;20058;-72
2023/06/06 18:25:25;;;;;;;7.72;5.82;;;;;;;;;;10069052;28;20066;-73
2023/06/06 18:30:21;;;;;;;8.60;5.18;;;;;;;;;;10066457;28;20587;-73
2023/06/06 18:35:18;;;;;;;6.55;5.55;;;;;;;;;;10065971;28;20449;-72
2023/06/06 18:40:19;;;;;;;9.70;5.28;;;;;;;;;;10066855;28;20054;-72
2023/06/06 18:45:16;;;;;;;9.27;5.95;;;;;;;;;;10065640;28;20055;-73
2023/06/06 18:50:13;;;;;;;9.23;6.10;;;;;;;;;;10062932;28;20055;-72
2023/06/06 18:55:11;;;;;;;9.98;5.53;;;;;;;;;;10052630;28;20134;-73
2023/06/06 19:00:08;;;;;;;7.60;5.32;;;;;;;;;;10061523;28;20507;-72
2023/06/06 19:05:05;;;;;;;8.70;5.60;;;;;;;;;;10052465;28;20109;-73
2023/06/06 19:10:05;;;;;;;10.13;5.47;;;;;;;;;;10078569;28;20540;-72
2023/06/06 19:15:01;;;;;;;6.43;5.03;;;;;;;;;;10044153;28;20058;-73
2023/06/06 19:19:58;;;;;;;10.70;5.85;;;;;;;;;;10060747;28;20051;-72
2023/06/06 19:24:55;;;;;;;8.55;6.25;;;;;;;;;;10045449;28;20067;-72
2023/06/06 19:29:51;;;;;;;10.10;5.63;;;;;;;;;;10069528;28;20105;-72
2023/06/06 19:34:48;;;;;;;10.48;6.05;;;;;;;;;;10063750;28;20110;-71
2023/06/06 19:39:46;;;;;;;7.57;5.68;;;;;;;;;;10070607;28;20043;-70
2023/06/06 19:44:43;;;;;;;10.20;7.20;;;;;;;;;;10045819;28;20134;-72
2023/06/06 19:49:39;;;;;;;7.78;6.28;;;;;;;;;;10054764;28;20079;-68
2023/06/06 19:54:36;;;;;;;9.73;6.55;;;;;;;;;;10066036;28;20051;-70
2023/06/06 19:59:33;;;;;;;9.98;5.70;;;;;;;;;;10047947;28;20130;-70
2023/06/06 20:04:29;;;;;;;8.75;6.13;;;;;;;;;;10063672;28;20050;-68
2023/06/06 20:09:25;;;;;;;8.65;6.13;;;;;;;;;;10069828;28;20043;-68
2023/06/06 20:14:22;;;;;;;9.70;6.78;;;;;;;;;;10062806;28;20039;-69
2023/06/06 20:19:18;;;;;;;11.90;6.95;;;;;;;;;;10050251;28;20043;-70
2023/06/06 20:24:15;;;;;;;10.20;5.90;;;;;;;;;;10067904;28;20043;-70
2023/06/06 20:29:11;;;;;;;10.70;5.80;;;;;;;;;;10074431;28;20078;-70
2023/06/06 20:34:07;;;;;;;10.32;6.45;;;;;;;;;;10057081;28;20051;-70
2023/06/06 20:39:13;;;;;;;8.80;5.85;;;;;;;;;;10073866;28;20114;-70
2023/06/06 20:44:10;;;;;;;10.02;6.50;;;;;;;;;;10065588;28;20054;-70
2023/06/06 20:49:07;;;;;;;7.97;5.93;;;;;;;;;;10073125;28;20062;-69
2023/06/06 20:54:04;;;;;;;9.55;6.05;;;;;;;;;;10075027;28;20082;-69
2023/06/06 20:59:00;;;;;;;10.65;6.10;;;;;;;;;;10053752;28;20138;-68
2023/06/06 21:03:57;;;;;;;11.45;5.55;;;;;;;;;;10064931;28;20473;-69
2023/06/06 21:08:53;;;;;;;8.98;5.65;;;;;;;;;;10070687;28;20055;-68
2023/06/06 21:13:50;;;;;;;10.15;5.38;;;;;;;;;;10073852;28;20074;-69
2023/06/06 21:18:47;;;;;;;11.10;7.10;;;;;;;;;;10054634;28;20142;-69
2023/06/06 21:23:43;;;;;;;10.88;5.70;;;;;;;;;;10066352;28;20047;-67
2023/06/06 21:28:40;;;;;;;12.65;7.15;;;;;;;;;;10061485;28;20043;-69
2023/06/06 21:33:36;;;;;;;9.15;6.55;;;;;;;;;;10069989;28;20507;-68
2023/06/06 21:38:33;;;;;;;10.80;6.65;;;;;;;;;;10065874;28;20094;-70
2023/06/06 21:43:32;;;;;;;13.73;7.18;;;;;;;;;;10049295;28;20141;-71
2023/06/06 21:48:28;;;;;;;12.00;7.25;;;;;;;;;;10070554;28;20544;-69
2023/06/06 21:53:25;;;;;;;10.65;7.75;;;;;;;;;;10070943;28;20469;-69
2023/06/06 21:58:21;;;;;;;14.63;7.32;;;;;;;;;;10072800;28;20143;-69
2023/06/06 22:03:18;;;;;;;10.15;6.10;;;;;;;;;;10069986;28;20506;-69
2023/06/06 22:08:15;;;;;;;11.98;6.38;;;;;;;;;;10068392;28;20138;-69
2023/06/06 22:13:11;;;;;;;12.98;6.53;;;;;;;;;;10083100;28;20158;-71
2023/06/06 22:18:08;;;;;;;12.52;6.75;;;;;;;;;;10064698;28;20050;-70
2023/06/06 22:23:04;;;;;;;12.32;6.68;;;;;;;;;;10067102;28;20079;-70
2023/06/06 22:28:00;;;;;;;13.48;7.07;;;;;;;;;;10075479;28;20448;-69
2023/06/06 22:32:57;;;;;;;10.32;6.22;;;;;;;;;;10077274;28;20039;-70
2023/06/06 22:37:55;;;;;;;11.15;6.45;;;;;;;;;;10056384;28;20130;-70
2023/06/06 22:42:57;;;;;;;11.23;6.57;;;;;;;;;;10063120;28;20047;-70
2023/06/06 22:47:53;;;;;;;12.35;7.13;;;;;;;;;;10068187;28;20054;-68
2023/06/06 22:52:50;;;;;;;12.13;6.63;;;;;;;;;;10073436;28;20074;-69
2023/06/06 22:57:46;;;;;;;13.93;7.15;;;;;;;;;;10070439;28;20469;-68
2023/06/06 23:02:42;;;;;;;13.35;6.55;;;;;;;;;;10066430;28;20454;-69
2023/06/06 23:07:40;;;;;;;13.63;7.13;;;;;;;;;;10042790;28;20055;-70
2023/06/06 23:12:38;;;;;;;10.35;6.32;;;;;;;;;;10069407;28;20226;-69
2023/06/06 23:17:35;;;;;;;14.95;8.13;;;;;;;;;;10066106;28;20059;-67
2023/06/06 23:22:33;;;;;;;12.95;7.00;;;;;;;;;;10069879;28;20047;-68
2023/06/06 23:27:38;;;;;;;11.52;6.70;;;;;;;;;;10065598;28;20505;-67
2023/06/06 23:32:34;;;;;;;12.27;7.55;;;;;;;;;;10073925;28;20098;-67
2023/06/06 23:37:31;;;;;;;14.15;7.30;;;;;;;;;;10067093;28;20043;-70
2023/06/06 23:42:27;;;;;;;11.43;7.45;;;;;;;;;;10064956;28;20091;-69
2023/06/06 23:47:24;;;;;;;11.73;7.00;;;;;;;;;;10080942;28;20047;-69
2023/06/06 23:52:20;;;;;;;13.43;7.85;;;;;;;;;;10081255;28;20047;-67
2023/06/06 23:57:17;;;;;;;14.60;8.27;;;;;;;;;;10061541;28;20058;-66
